Mr Aries — V7ML4 — position and weather

sailwx.info

Track history (hours):
 
Tides and Currents Weather Stations Pressure Air Temp Water Temp Dewpoint Dewpoint Depression Visibility Wind Speed Wind Dir Waves Ship Positions

Mr Aries

Last reported at 2016-Jul-28 21:33 UTC. Time now 2016-Jul-28 22:20 UTC.
Position N 43°23' E 004°58'.

Length 183 m; draft 8 m.

Type: Ship. MMSI: 538002869.

Date/timePositionNaut miles runAvg speedWind from/ knotsBaromVisibWave heightAir tempDewpointWater temp
2016-Jul-28 21:33N 43°23' E 004°58'0 0.0
2016-Jul-28 20:33N 43°23' E 004°58'0 0.0
2016-Jul-28 19:33N 43°23' E 004°58'0 0.0
2016-Jul-28 18:33N 43°23' E 004°58'0 0.0
2016-Jul-28 17:33N 43°24' E 004°58'0 0.0
2016-Jul-28 16:33N 43°24' E 004°58'0 0.0
2016-Jul-28 15:33N 43°24' E 004°58'0 0.0
2016-Jul-28 14:33N 43°24' E 004°58'0 0.1
2016-Jul-28 13:33N 43°23' E 004°58'0 0.1
2016-Jul-28 12:33N 43°23' E 004°58'0 0.0
2016-Jul-28 11:33N 43°23' E 004°58'0 0.0
2016-Jul-28 10:33N 43°23' E 004°58'0 0.0
2016-Jul-28 09:33N 43°23' E 004°58'0 0.0
2016-Jul-28 08:33N 43°23' E 004°58'0 0.0
2016-Jul-28 07:33N 43°23' E 004°58'0 0.0
2016-Jul-28 06:33N 43°23' E 004°58'0 0.1
2016-Jul-28 05:33N 43°23' E 004°58'7 7.3
2016-Jul-28 04:33N 43°16' E 005°00'4212.3
2016-Jul-28 01:10N 42°39' E 005°26'4611.9
2016-Jul-27 21:16N 41°57' E 005°52'1011.8
2016-Jul-27 20:24N 41°48' E 005°59'1112.7
2016-Jul-27 19:32N 41°38' E 006°06'24012.5
2016-Jul-27 00:18N 38°18' E 008°58'1013.1
2016-Jul-26 23:33N 38°14' E 009°09'1313.0
2016-Jul-26 22:33N 38°08' E 009°25'  
2016-Jul-23 16:25N 34°16' E 010°09'3 0.8
2016-Jul-23 13:08N 34°14' E 010°07'2012.3
2016-Jul-23 11:33N 34°05' E 010°28'1813.3
2016-Jul-23 10:12N 34°05' E 010°50'1013.1
2016-Jul-23 09:26N 34°05' E 011°02'1213.3
2016-Jul-23 08:33N 34°05' E 011°16'1713.2
2016-Jul-23 07:15N 34°05' E 011°37'9013.4
2016-Jul-23 00:32N 35°03' E 013°00'1212.7
2016-Jul-22 23:33N 35°12' E 013°10'1413.5
2016-Jul-22 22:33N 35°26' E 013°10'1313.3
2016-Jul-22 21:33N 35°39' E 013°10'1313.3
2016-Jul-22 20:33N 35°52' E 013°10'1211.9
2016-Jul-22 19:33N 36°04' E 013°06'1313.2
2016-Jul-22 18:33N 36°13' E 012°54'1413.5
2016-Jul-22 17:34N 36°24' E 012°43'1414.0
2016-Jul-22 16:33N 36°34' E 012°31'1313.3
2016-Jul-22 15:33N 36°43' E 012°20'1313.3
2016-Jul-22 14:33N 36°53' E 012°08'1313.2
2016-Jul-22 13:33N 36°60' E 011°54'1313.2
2016-Jul-22 12:33N 37°06' E 011°40'1313.4
2016-Jul-22 11:33N 37°14' E 011°26'1413.5
2016-Jul-22 10:33N 37°21' E 011°11'3413.5
2016-Jul-22 08:04N 37°31' E 010°31'1213.1
2016-Jul-22 07:07N 37°33' E 010°15'10013.1
2016-Jul-21 23:30N 37°17' E 008°11'1213.1
2016-Jul-21 22:33N 37°17' E 007°55'5612.6
2016-Jul-21 18:07N 37°20' E 006°45'711.7
2016-Jul-21 17:32N 37°20' E 006°37'4212.5
2016-Jul-21 14:13N 37°16' E 005°45'6513.2
2016-Jul-21 09:20N 37°09' E 004°24'1012.8
2016-Jul-21 08:33N 37°08' E 004°12'1312.8
2016-Jul-21 07:33N 37°07' E 003°56'1312.9
2016-Jul-21 06:33N 37°06' E 003°40'1212.5
2016-Jul-21 05:33N 37°04' E 003°24'1312.9
2016-Jul-21 04:33N 37°03' E 003°08'1313.4
2016-Jul-21 03:33N 37°01' E 002°51'1413.1
2016-Jul-21 02:27N 36°60' E 002°33'1213.0
2016-Jul-21 01:33N 36°59' E 002°19'1312.9
2016-Jul-21 00:33N 36°58' E 002°03'1312.8
2016-Jul-20 23:33N 36°56' E 001°47'1212.5
2016-Jul-20 22:33N 36°55' E 001°31'1312.6
2016-Jul-20 21:33N 36°53' E 001°16'1512.9
2016-Jul-20 20:23N 36°52' E 000°57'1112.7
2016-Jul-20 19:33N 36°50' E 000°44'1212.4
2016-Jul-20 18:33N 36°48' E 000°28'1312.8
2016-Jul-20 17:33N 36°45' E 000°13'1413.2
2016-Jul-20 16:30N 36°42' W 000°04'1213.1
2016-Jul-20 15:33N 36°40' W 000°19'1313.2
2016-Jul-20 14:33N 36°38' W 000°36'6713.3
2016-Jul-20 09:29N 36°24' W 001°57'16712.9
2016-Jul-19 20:34N 36°05' W 005°23'1 1.5
2016-Jul-19 19:32N 36°05' W 005°25'0 0.1
2016-Jul-19 18:32N 36°05' W 005°25'0 0.0
2016-Jul-19 17:32N 36°05' W 005°25'0 0.0
2016-Jul-19 16:29N 36°05' W 005°25'0 0.1
2016-Jul-19 15:32N 36°05' W 005°25'0 0.1
2016-Jul-19 14:32N 36°05' W 005°25'0 0.0
2016-Jul-19 13:32N 36°05' W 005°25'0 0.1
2016-Jul-19 12:32N 36°05' W 005°25'0 0.0
2016-Jul-19 11:32N 36°05' W 005°25'0 0.0
2016-Jul-19 10:32N 36°05' W 005°25'0 0.1
2016-Jul-19 09:32N 36°05' W 005°25'0 0.1
2016-Jul-19 08:32N 36°05' W 005°25'0 0.1
2016-Jul-19 07:26N 36°05' W 005°25'5 0.7
2016-Jul-19 00:33N 36°01' W 005°24'  
Track history (hours):
 
Tides and Currents Weather Stations Pressure Air Temp Water Temp Dewpoint Dewpoint Depression Visibility Wind Speed Wind Dir Waves Ship Positions

Mr Aries

Last reported at 2016-Jul-28 21:33 UTC. Time now 2016-Jul-28 22:20 UTC.
Position N 43°23' E 004°58'.

Length 183 m; draft 8 m.

Type: Ship. MMSI: 538002869.

Date/timePositionNaut miles runAvg speedWind from/ knotsBaromVisibWave heightAir tempDewpointWater temp
2016-Jul-28 21:33N 43°23' E 004°58'0 0.0
2016-Jul-28 20:33N 43°23' E 004°58'0 0.0
2016-Jul-28 19:33N 43°23' E 004°58'0 0.0
2016-Jul-28 18:33N 43°23' E 004°58'0 0.0
2016-Jul-28 17:33N 43°24' E 004°58'0 0.0
2016-Jul-28 16:33N 43°24' E 004°58'0 0.0
2016-Jul-28 15:33N 43°24' E 004°58'0 0.0
2016-Jul-28 14:33N 43°24' E 004°58'0 0.1
2016-Jul-28 13:33N 43°23' E 004°58'0 0.1
2016-Jul-28 12:33N 43°23' E 004°58'0 0.0
2016-Jul-28 11:33N 43°23' E 004°58'0 0.0
2016-Jul-28 10:33N 43°23' E 004°58'0 0.0
2016-Jul-28 09:33N 43°23' E 004°58'0 0.0
2016-Jul-28 08:33N 43°23' E 004°58'0 0.0
2016-Jul-28 07:33N 43°23' E 004°58'0 0.0
2016-Jul-28 06:33N 43°23' E 004°58'0 0.1
2016-Jul-28 05:33N 43°23' E 004°58'7 7.3
2016-Jul-28 04:33N 43°16' E 005°00'4212.3
2016-Jul-28 01:10N 42°39' E 005°26'4611.9
2016-Jul-27 21:16N 41°57' E 005°52'1011.8
2016-Jul-27 20:24N 41°48' E 005°59'1112.7
2016-Jul-27 19:32N 41°38' E 006°06'24012.5
2016-Jul-27 00:18N 38°18' E 008°58'1013.1
2016-Jul-26 23:33N 38°14' E 009°09'1313.0
2016-Jul-26 22:33N 38°08' E 009°25'  
2016-Jul-23 16:25N 34°16' E 010°09'3 0.8
2016-Jul-23 13:08N 34°14' E 010°07'2012.3
2016-Jul-23 11:33N 34°05' E 010°28'1813.3
2016-Jul-23 10:12N 34°05' E 010°50'1013.1
2016-Jul-23 09:26N 34°05' E 011°02'1213.3
2016-Jul-23 08:33N 34°05' E 011°16'1713.2
2016-Jul-23 07:15N 34°05' E 011°37'9013.4
2016-Jul-23 00:32N 35°03' E 013°00'1212.7
2016-Jul-22 23:33N 35°12' E 013°10'1413.5
2016-Jul-22 22:33N 35°26' E 013°10'1313.3
2016-Jul-22 21:33N 35°39' E 013°10'1313.3
2016-Jul-22 20:33N 35°52' E 013°10'1211.9
2016-Jul-22 19:33N 36°04' E 013°06'1313.2
2016-Jul-22 18:33N 36°13' E 012°54'1413.5
2016-Jul-22 17:34N 36°24' E 012°43'1414.0
2016-Jul-22 16:33N 36°34' E 012°31'1313.3
2016-Jul-22 15:33N 36°43' E 012°20'1313.3
2016-Jul-22 14:33N 36°53' E 012°08'1313.2
2016-Jul-22 13:33N 36°60' E 011°54'1313.2
2016-Jul-22 12:33N 37°06' E 011°40'1313.4
2016-Jul-22 11:33N 37°14' E 011°26'1413.5
2016-Jul-22 10:33N 37°21' E 011°11'3413.5
2016-Jul-22 08:04N 37°31' E 010°31'1213.1
2016-Jul-22 07:07N 37°33' E 010°15'10013.1
2016-Jul-21 23:30N 37°17' E 008°11'1213.1
2016-Jul-21 22:33N 37°17' E 007°55'5612.6
2016-Jul-21 18:07N 37°20' E 006°45'711.7
2016-Jul-21 17:32N 37°20' E 006°37'4212.5
2016-Jul-21 14:13N 37°16' E 005°45'6513.2
2016-Jul-21 09:20N 37°09' E 004°24'1012.8
2016-Jul-21 08:33N 37°08' E 004°12'1312.8
2016-Jul-21 07:33N 37°07' E 003°56'1312.9
2016-Jul-21 06:33N 37°06' E 003°40'1212.5
2016-Jul-21 05:33N 37°04' E 003°24'1312.9
2016-Jul-21 04:33N 37°03' E 003°08'1313.4
2016-Jul-21 03:33N 37°01' E 002°51'1413.1
2016-Jul-21 02:27N 36°60' E 002°33'1213.0
2016-Jul-21 01:33N 36°59' E 002°19'1312.9
2016-Jul-21 00:33N 36°58' E 002°03'1312.8
2016-Jul-20 23:33N 36°56' E 001°47'1212.5
2016-Jul-20 22:33N 36°55' E 001°31'1312.6
2016-Jul-20 21:33N 36°53' E 001°16'1512.9
2016-Jul-20 20:23N 36°52' E 000°57'1112.7
2016-Jul-20 19:33N 36°50' E 000°44'1212.4
2016-Jul-20 18:33N 36°48' E 000°28'1312.8
2016-Jul-20 17:33N 36°45' E 000°13'1413.2
2016-Jul-20 16:30N 36°42' W 000°04'1213.1
2016-Jul-20 15:33N 36°40' W 000°19'1313.2
2016-Jul-20 14:33N 36°38' W 000°36'6713.3
2016-Jul-20 09:29N 36°24' W 001°57'16712.9
2016-Jul-19 20:34N 36°05' W 005°23'1 1.5
2016-Jul-19 19:32N 36°05' W 005°25'0 0.1
2016-Jul-19 18:32N 36°05' W 005°25'0 0.0
2016-Jul-19 17:32N 36°05' W 005°25'0 0.0
2016-Jul-19 16:29N 36°05' W 005°25'0 0.1
2016-Jul-19 15:32N 36°05' W 005°25'0 0.1
2016-Jul-19 14:32N 36°05' W 005°25'0 0.0
2016-Jul-19 13:32N 36°05' W 005°25'0 0.1
2016-Jul-19 12:32N 36°05' W 005°25'0 0.0
2016-Jul-19 11:32N 36°05' W 005°25'0 0.0
2016-Jul-19 10:32N 36°05' W 005°25'0 0.1
2016-Jul-19 09:32N 36°05' W 005°25'0 0.1
2016-Jul-19 08:32N 36°05' W 005°25'0 0.1
2016-Jul-19 07:26N 36°05' W 005°25'5 0.7
2016-Jul-19 00:33N 36°01' W 005°24'  

Dump ship's entire track history